< < Back
Terminal Aerodrome Forecast


Current Version              Previous Versions:   1  2  3  4  5  6  7  8  9  

Terminal Aerodrome Forecast

042
FTUS42 KMLB 241958 AAA
TAFDAB
TAF AMD
KDAB 241958Z 2420/2518 02014KT P6SM BKN250
     FM250600 00000KT P6SM FEW040 SCT250
     FM251300 18011KT P6SM SCT035
     FM251600 18011KT P6SM VCSH BKN035=

Latest METAR

278
SAUS80 KWBC 250000 RRA
MTRDAB
METAR KDAB 242353Z 01007KT 10SM FEW150 FEW250 22/18 A2999 RMK AO2 SLP156
T02220178 10261 20222 56003


USA.gov is the U.S. government's official web portal to all federal, state and local government web resources and services.